sensor_id;sensor_type;location;lat;lon;timestamp;pressure;altitude;pressure_sealevel;temperature;humidity
2875;BME280;1445;52.600;13.328;2023-03-26T00:00:46;99593.81;;;8.12;100.00
2875;BME280;1445;52.600;13.328;2023-03-26T00:03:15;99594.63;;;8.13;100.00
2875;BME280;1445;52.600;13.328;2023-03-26T00:05:41;99582.03;;;8.12;100.00
2875;BME280;1445;52.600;13.328;2023-03-26T00:08:08;99594.63;;;8.13;100.00
2875;BME280;1445;52.600;13.328;2023-03-26T00:10:35;99587.19;;;8.13;100.00
2875;BME280;1445;52.600;13.328;2023-03-26T00:13:01;99595.94;;;8.16;100.00
2875;BME280;1445;52.600;13.328;2023-03-26T00:15:27;99595.44;;;8.13;100.00
2875;BME280;1445;52.600;13.328;2023-03-26T00:17:53;99598.34;;;8.17;100.00
2875;BME280;1445;52.600;13.328;2023-03-26T00:20:18;99597.88;;;8.15;100.00
2875;BME280;1445;52.600;13.328;2023-03-26T00:22:44;99600.09;;;8.13;100.00
2875;BME280;1445;52.600;13.328;2023-03-26T00:25:10;99600.44;;;8.11;100.00
2875;BME280;1445;52.600;13.328;2023-03-26T00:27:35;99618.00;;;8.10;100.00
2875;BME280;1445;52.600;13.328;2023-03-26T00:30:01;99608.78;;;8.06;100.00
2875;BME280;1445;52.600;13.328;2023-03-26T00:32:28;99597.50;;;8.08;100.00
2875;BME280;1445;52.600;13.328;2023-03-26T00:34:55;99610.59;;;8.11;100.00
2875;BME280;1445;52.600;13.328;2023-03-26T00:37:22;99590.06;;;8.08;100.00
2875;BME280;1445;52.600;13.328;2023-03-26T00:39:55;99609.91;;;8.05;100.00
2875;BME280;1445;52.600;13.328;2023-03-26T00:42:28;99594.75;;;8.08;100.00
2875;BME280;1445;52.600;13.328;2023-03-26T00:44:53;99601.34;;;8.07;100.00
2875;BME280;1445;52.600;13.328;2023-03-26T00:47:25;99607.03;;;8.10;100.00
2875;BME280;1445;52.600;13.328;2023-03-26T00:49:50;99604.59;;;8.09;100.00
2875;BME280;1445;52.600;13.328;2023-03-26T00:52:16;99606.53;;;8.08;100.00
2875;BME280;1445;52.600;13.328;2023-03-26T00:54:54;99605.91;;;8.11;100.00
2875;BME280;1445;52.600;13.328;2023-03-26T00:57:21;99604.59;;;8.09;100.00
2875;BME280;1445;52.600;13.328;2023-03-26T00:59:47;99591.22;;;8.07;100.00
2875;BME280;1445;52.600;13.328;2023-03-26T01:02:17;99592.81;;;8.08;100.00
2875;BME280;1445;52.600;13.328;2023-03-26T01:04:50;99593.13;;;8.07;100.00
2875;BME280;1445;52.600;13.328;2023-03-26T01:16:53;99605.22;;;8.06;100.00
2875;BME280;1445;52.600;13.328;2023-03-26T01:19:42;99605.38;;;8.01;100.00
2875;BME280;1445;52.600;13.328;2023-03-26T01:22:12;99641.78;;;7.93;100.00
2875;BME280;1445;52.600;13.328;2023-03-26T01:24:39;99622.69;;;7.87;100.00
2875;BME280;1445;52.600;13.328;2023-03-26T01:29:57;99632.16;;;7.81;100.00
2875;BME280;1445;52.600;13.328;2023-03-26T01:32:40;99645.50;;;7.74;100.00
2875;BME280;1445;52.600;13.328;2023-03-26T01:37:59;99653.34;;;7.67;100.00
2875;BME280;1445;52.600;13.328;2023-03-26T01:40:34;99657.50;;;7.64;100.00
2875;BME280;1445;52.600;13.328;2023-03-26T01:45:51;99647.66;;;7.63;100.00
2875;BME280;1445;52.600;13.328;2023-03-26T01:48:17;99658.31;;;7.65;100.00
2875;BME280;1445;52.600;13.328;2023-03-26T01:50:43;99668.19;;;7.66;100.00
2875;BME280;1445;52.600;13.328;2023-03-26T01:53:10;99669.28;;;7.65;100.00
2875;BME280;1445;52.600;13.328;2023-03-26T01:59:03;99647.84;;;7.67;100.00
2875;BME280;1445;52.600;13.328;2023-03-26T02:07:01;99636.69;;;7.63;100.00
2875;BME280;1445;52.600;13.328;2023-03-26T02:09:32;99642.38;;;7.67;100.00
2875;BME280;1445;52.600;13.328;2023-03-26T02:11:59;99644.59;;;7.65;100.00
2875;BME280;1445;52.600;13.328;2023-03-26T02:14:29;99628.47;;;7.63;100.00
2875;BME280;1445;52.600;13.328;2023-03-26T02:16:54;99634.47;;;7.65;100.00
2875;BME280;1445;52.600;13.328;2023-03-26T02:19:21;99652.34;;;7.63;100.00
2875;BME280;1445;52.600;13.328;2023-03-26T02:21:48;99636.81;;;7.58;100.00
2875;BME280;1445;52.600;13.328;2023-03-26T02:24:16;99648.41;;;7.55;100.00
2875;BME280;1445;52.600;13.328;2023-03-26T02:26:43;99638.78;;;7.44;100.00
2875;BME280;1445;52.600;13.328;2023-03-26T02:29:09;99633.06;;;7.40;100.00
2875;BME280;1445;52.600;13.328;2023-03-26T02:31:34;99638.38;;;7.37;100.00
2875;BME280;1445;52.600;13.328;2023-03-26T02:34:00;99654.81;;;7.37;100.00
2875;BME280;1445;52.600;13.328;2023-03-26T02:36:26;99650.59;;;7.31;100.00
2875;BME280;1445;52.600;13.328;2023-03-26T02:38:53;99657.69;;;7.32;100.00
2875;BME280;1445;52.600;13.328;2023-03-26T02:41:20;99672.50;;;7.31;100.00
2875;BME280;1445;52.600;13.328;2023-03-26T02:43:45;99668.97;;;7.30;100.00
2875;BME280;1445;52.600;13.328;2023-03-26T02:46:11;99715.56;;;7.30;100.00
2875;BME280;1445;52.600;13.328;2023-03-26T02:48:39;99690.56;;;7.32;100.00
2875;BME280;1445;52.600;13.328;2023-03-26T02:51:06;99698.19;;;7.35;100.00
2875;BME280;1445;52.600;13.328;2023-03-26T02:53:31;99691.91;;;7.34;100.00
2875;BME280;1445;52.600;13.328;2023-03-26T02:55:58;99678.47;;;7.33;100.00
2875;BME280;1445;52.600;13.328;2023-03-26T02:58:25;99714.84;;;7.38;100.00
2875;BME280;1445;52.600;13.328;2023-03-26T03:00:52;99692.09;;;7.38;100.00
2875;BME280;1445;52.600;13.328;2023-03-26T03:03:25;99686.28;;;7.39;100.00
2875;BME280;1445;52.600;13.328;2023-03-26T03:05:51;99685.16;;;7.40;100.00
2875;BME280;1445;52.600;13.328;2023-03-26T03:08:19;99691.50;;;7.41;100.00
2875;BME280;1445;52.600;13.328;2023-03-26T03:10:59;99696.66;;;7.43;100.00
2875;BME280;1445;52.600;13.328;2023-03-26T03:13:26;99682.66;;;7.44;100.00
2875;BME280;1445;52.600;13.328;2023-03-26T03:15:51;99684.88;;;7.42;100.00
2875;BME280;1445;52.600;13.328;2023-03-26T03:18:17;99686.22;;;7.45;100.00
2875;BME280;1445;52.600;13.328;2023-03-26T03:20:42;99690.88;;;7.44;100.00
2875;BME280;1445;52.600;13.328;2023-03-26T03:23:09;99685.09;;;7.46;100.00
2875;BME280;1445;52.600;13.328;2023-03-26T03:25:34;99699.31;;;7.48;100.00
2875;BME280;1445;52.600;13.328;2023-03-26T03:28:00;99710.56;;;7.46;100.00
2875;BME280;1445;52.600;13.328;2023-03-26T03:30:25;99701.72;;;7.49;100.00
2875;BME280;1445;52.600;13.328;2023-03-26T03:32:51;99701.13;;;7.52;100.00
2875;BME280;1445;52.600;13.328;2023-03-26T03:35:16;99674.81;;;7.51;100.00
2875;BME280;1445;52.600;13.328;2023-03-26T03:37:42;99691.75;;;7.53;100.00
2875;BME280;1445;52.600;13.328;2023-03-26T03:40:08;99678.06;;;7.53;100.00
2875;BME280;1445;52.600;13.328;2023-03-26T03:42:36;99671.44;;;7.54;100.00
2875;BME280;1445;52.600;13.328;2023-03-26T03:45:03;99676.84;;;7.59;100.00
2875;BME280;1445;52.600;13.328;2023-03-26T03:47:30;99671.44;;;7.54;100.00
2875;BME280;1445;52.600;13.328;2023-03-26T03:49:55;99688.09;;;7.58;100.00
2875;BME280;1445;52.600;13.328;2023-03-26T03:52:21;99680.50;;;7.55;100.00
2875;BME280;1445;52.600;13.328;2023-03-26T03:54:46;99679.19;;;7.52;100.00
2875;BME280;1445;52.600;13.328;2023-03-26T03:57:12;99696.63;;;7.56;100.00
2875;BME280;1445;52.600;13.328;2023-03-26T03:59:40;99693.69;;;7.53;100.00
2875;BME280;1445;52.600;13.328;2023-03-26T04:02:05;99693.69;;;7.53;100.00
2875;BME280;1445;52.600;13.328;2023-03-26T04:04:31;99695.44;;;7.35;100.00
2875;BME280;1445;52.600;13.328;2023-03-26T04:06:57;99717.59;;;7.25;100.00
2875;BME280;1445;52.600;13.328;2023-03-26T04:09:22;99711.16;;;7.15;100.00
2875;BME280;1445;52.600;13.328;2023-03-26T04:11:47;99719.78;;;7.09;100.00
2875;BME280;1445;52.600;13.328;2023-03-26T04:14:15;99731.66;;;7.04;100.00
2875;BME280;1445;52.600;13.328;2023-03-26T04:16:40;99742.13;;;7.02;100.00
2875;BME280;1445;52.600;13.328;2023-03-26T04:19:06;99734.41;;;7.04;100.00
2875;BME280;1445;52.600;13.328;2023-03-26T04:21:32;99739.41;;;7.02;100.00
2875;BME280;1445;52.600;13.328;2023-03-26T04:24:02;99727.59;;;7.02;100.00
2875;BME280;1445;52.600;13.328;2023-03-26T04:26:27;99732.69;;;7.08;100.00
2875;BME280;1445;52.600;13.328;2023-03-26T04:28:57;99738.47;;;7.07;100.00
2875;BME280;1445;52.600;13.328;2023-03-26T04:31:26;99738.97;;;7.09;100.00
2875;BME280;1445;52.600;13.328;2023-03-26T04:34:06;99740.09;;;7.08;100.00
2875;BME280;1445;52.600;13.328;2023-03-26T04:36:32;99740.81;;;7.13;100.00
2875;BME280;1445;52.600;13.328;2023-03-26T04:39:02;99742.97;;;7.16;100.00
2875;BME280;1445;52.600;13.328;2023-03-26T04:41:29;99729.06;;;7.13;100.00
2875;BME280;1445;52.600;13.328;2023-03-26T04:43:56;99742.44;;;7.14;100.00
2875;BME280;1445;52.600;13.328;2023-03-26T04:46:22;99742.16;;;7.16;100.00
2875;BME280;1445;52.600;13.328;2023-03-26T04:48:51;99742.66;;;7.18;100.00
2875;BME280;1445;52.600;13.328;2023-03-26T04:51:20;99735.84;;;7.15;100.00
2875;BME280;1445;52.600;13.328;2023-03-26T04:53:51;99742.97;;;7.16;100.00
2875;BME280;1445;52.600;13.328;2023-03-26T04:56:38;99735.22;;;7.18;100.00
2875;BME280;1445;52.600;13.328;2023-03-26T04:59:05;99727.00;;;7.18;100.00
2875;BME280;1445;52.600;13.328;2023-03-26T05:01:32;99741.44;;;7.24;100.00
2875;BME280;1445;52.600;13.328;2023-03-26T05:04:01;99735.44;;;7.22;100.00
2875;BME280;1445;52.600;13.328;2023-03-26T05:06:27;99726.41;;;7.22;100.00
2875;BME280;1445;52.600;13.328;2023-03-26T05:08:54;99731.59;;;7.23;100.00
2875;BME280;1445;52.600;13.328;2023-03-26T05:11:20;99732.41;;;7.24;100.00
2875;BME280;1445;52.600;13.328;2023-03-26T05:13:45;99724.28;;;7.18;100.00
2875;BME280;1445;52.600;13.328;2023-03-26T05:16:11;99735.75;;;7.21;100.00
2875;BME280;1445;52.600;13.328;2023-03-26T05:18:37;99728.34;;;7.21;100.00
2875;BME280;1445;52.600;13.328;2023-03-26T05:21:02;99733.03;;;7.21;100.00
2875;BME280;1445;52.600;13.328;2023-03-26T05:23:28;99720.44;;;7.20;100.00
2875;BME280;1445;52.600;13.328;2023-03-26T05:25:54;99730.47;;;7.24;100.00
2875;BME280;1445;52.600;13.328;2023-03-26T05:28:20;99721.72;;;7.22;100.00
2875;BME280;1445;52.600;13.328;2023-03-26T05:30:49;99723.19;;;7.20;100.00
2875;BME280;1445;52.600;13.328;2023-03-26T05:33:15;99733.81;;;7.21;100.00
2875;BME280;1445;52.600;13.328;2023-03-26T05:35:41;99733.03;;;7.21;100.00
2875;BME280;1445;52.600;13.328;2023-03-26T05:38:07;99745.00;;;7.25;100.00
2875;BME280;1445;52.600;13.328;2023-03-26T05:40:32;99734.03;;;7.25;100.00
2875;BME280;1445;52.600;13.328;2023-03-26T05:42:58;99753.72;;;7.27;100.00
2875;BME280;1445;52.600;13.328;2023-03-26T05:45:23;99744.25;;;7.19;100.00
2875;BME280;1445;52.600;13.328;2023-03-26T05:47:49;99745.09;;;7.20;100.00
2875;BME280;1445;52.600;13.328;2023-03-26T05:50:18;99743.88;;;7.26;100.00
2875;BME280;1445;52.600;13.328;2023-03-26T05:52:43;99767.72;;;7.25;100.00
2875;BME280;1445;52.600;13.328;2023-03-26T05:55:08;99750.66;;;7.01;100.00
2875;BME280;1445;52.600;13.328;2023-03-26T05:57:34;99743.38;;;6.77;100.00
2875;BME280;1445;52.600;13.328;2023-03-26T06:00:01;99742.84;;;6.61;100.00
2875;BME280;1445;52.600;13.328;2023-03-26T06:02:28;99745.34;;;6.44;100.00
2875;BME280;1445;52.600;13.328;2023-03-26T06:04:53;99741.63;;;6.35;100.00
2875;BME280;1445;52.600;13.328;2023-03-26T06:07:21;99755.91;;;6.32;100.00
2875;BME280;1445;52.600;13.328;2023-03-26T06:09:47;99747.63;;;6.37;100.00
2875;BME280;1445;52.600;13.328;2023-03-26T06:12:13;99761.56;;;6.21;100.00
2875;BME280;1445;52.600;13.328;2023-03-26T06:14:39;99762.22;;;6.13;100.00
2875;BME280;1445;52.600;13.328;2023-03-26T06:17:07;99762.97;;;6.19;100.00
2875;BME280;1445;52.600;13.328;2023-03-26T06:19:33;99778.13;;;6.11;100.00
2875;BME280;1445;52.600;13.328;2023-03-26T06:21:58;99772.66;;;6.11;100.00
2875;BME280;1445;52.600;13.328;2023-03-26T06:24:23;99767.47;;;6.10;100.00
2875;BME280;1445;52.600;13.328;2023-03-26T06:26:49;99772.34;;;6.13;100.00
2875;BME280;1445;52.600;13.328;2023-03-26T06:29:15;99780.19;;;6.19;100.00
2875;BME280;1445;52.600;13.328;2023-03-26T06:31:40;99779.50;;;6.28;100.00
2875;BME280;1445;52.600;13.328;2023-03-26T06:34:06;99765.97;;;6.36;100.00
2875;BME280;1445;52.600;13.328;2023-03-26T06:36:32;99754.94;;;6.41;100.00
2875;BME280;1445;52.600;13.328;2023-03-26T06:38:57;99754.56;;;6.48;100.00
2875;BME280;1445;52.600;13.328;2023-03-26T06:41:23;99754.19;;;6.55;100.00
2875;BME280;1445;52.600;13.328;2023-03-26T06:43:48;99755.22;;;6.59;100.00
2875;BME280;1445;52.600;13.328;2023-03-26T06:46:14;99752.09;;;6.65;100.00
2875;BME280;1445;52.600;13.328;2023-03-26T06:48:39;99751.50;;;6.68;100.00
2875;BME280;1445;52.600;13.328;2023-03-26T06:51:06;99751.19;;;6.70;100.00
2875;BME280;1445;52.600;13.328;2023-03-26T06:53:32;99745.91;;;6.74;100.00
2875;BME280;1445;52.600;13.328;2023-03-26T06:55:57;99740.66;;;6.77;100.00
2875;BME280;1445;52.600;13.328;2023-03-26T06:58:23;99750.34;;;6.88;100.00
2875;BME280;1445;52.600;13.328;2023-03-26T07:00:52;99758.25;;;6.90;100.00
2875;BME280;1445;52.600;13.328;2023-03-26T07:03:18;99752.16;;;6.93;100.00
2875;BME280;1445;52.600;13.328;2023-03-26T07:05:46;99752.56;;;7.00;100.00
2875;BME280;1445;52.600;13.328;2023-03-26T07:08:12;99739.19;;;7.12;100.00
2875;BME280;1445;52.600;13.328;2023-03-26T07:10:37;99759.63;;;7.34;100.00
2875;BME280;1445;52.600;13.328;2023-03-26T07:13:03;99739.19;;;7.40;100.00
2875;BME280;1445;52.600;13.328;2023-03-26T07:15:28;99737.56;;;7.67;100.00
2875;BME280;1445;52.600;13.328;2023-03-26T07:17:54;99726.69;;;7.61;100.00
2875;BME280;1445;52.600;13.328;2023-03-26T07:20:19;99719.75;;;7.78;100.00
2875;BME280;1445;52.600;13.328;2023-03-26T07:22:45;99714.88;;;7.75;100.00
2875;BME280;1445;52.600;13.328;2023-03-26T07:25:12;99703.88;;;7.88;100.00
2875;BME280;1445;52.600;13.328;2023-03-26T07:33:14;99685.66;;;8.29;100.00
2875;BME280;1445;52.600;13.328;2023-03-26T07:46:13;99678.72;;;8.09;100.00
2875;BME280;1445;52.600;13.328;2023-03-26T07:48:41;99684.34;;;8.04;100.00
2875;BME280;1445;52.600;13.328;2023-03-26T07:51:08;99695.13;;;8.00;100.00
2875;BME280;1445;52.600;13.328;2023-03-26T07:53:33;99693.84;;;8.06;100.00
2875;BME280;1445;52.600;13.328;2023-03-26T07:58:40;99672.03;;;8.01;100.00
2875;BME280;1445;52.600;13.328;2023-03-26T08:01:18;99674.22;;;8.13;100.00
2875;BME280;1445;52.600;13.328;2023-03-26T08:04:13;99670.47;;;8.09;100.00
2875;BME280;1445;52.600;13.328;2023-03-26T08:06:55;99662.56;;;8.07;100.00
2875;BME280;1445;52.600;13.328;2023-03-26T08:09:34;99675.16;;;8.08;100.00
2875;BME280;1445;52.600;13.328;2023-03-26T08:12:09;99677.75;;;7.91;100.00
2875;BME280;1445;52.600;13.328;2023-03-26T08:14:48;99686.81;;;7.92;100.00
2875;BME280;1445;52.600;13.328;2023-03-26T08:17:49;99691.91;;;7.84;100.00
2875;BME280;1445;52.600;13.328;2023-03-26T08:22:56;99681.41;;;8.00;100.00
2875;BME280;1445;52.600;13.328;2023-03-26T08:25:34;99686.91;;;8.23;100.00
2875;BME280;1445;52.600;13.328;2023-03-26T08:28:24;99694.44;;;8.17;100.00
2875;BME280;1445;52.600;13.328;2023-03-26T08:30:54;99695.50;;;8.07;100.00
2875;BME280;1445;52.600;13.328;2023-03-26T08:33:20;99676.03;;;8.18;100.00
2875;BME280;1445;52.600;13.328;2023-03-26T08:35:47;99683.81;;;8.24;100.00
2875;BME280;1445;52.600;13.328;2023-03-26T08:38:17;99678.16;;;8.21;100.00
2875;BME280;1445;52.600;13.328;2023-03-26T09:16:10;99738.56;;;7.02;100.00
2875;BME280;1445;52.600;13.328;2023-03-26T09:22:06;99754.91;;;6.93;100.00
2875;BME280;1445;52.600;13.328;2023-03-26T09:25:03;99771.09;;;6.76;100.00
2875;BME280;1445;52.600;13.328;2023-03-26T09:38:38;99785.47;;;6.67;100.00
2875;BME280;1445;52.600;13.328;2023-03-26T09:41:17;99786.63;;;6.80;100.00
2875;BME280;1445;52.600;13.328;2023-03-26T09:44:23;99803.91;;;6.62;100.00
2875;BME280;1445;52.600;13.328;2023-03-26T09:50:07;99790.75;;;6.64;100.00
2875;BME280;1445;52.600;13.328;2023-03-26T09:52:45;99786.94;;;6.60;100.00
2875;BME280;1445;52.600;13.328;2023-03-26T10:04:31;99802.84;;;6.77;100.00
2875;BME280;1445;52.600;13.328;2023-03-26T10:12:40;99794.50;;;6.49;100.00
2875;BME280;1445;52.600;13.328;2023-03-26T10:15:49;99799.59;;;6.75;100.00
2875;BME280;1445;52.600;13.328;2023-03-26T10:18:40;99797.56;;;6.80;100.00
2875;BME280;1445;52.600;13.328;2023-03-26T10:24:09;99791.03;;;6.95;100.00
2875;BME280;1445;52.600;13.328;2023-03-26T10:32:28;99777.66;;;7.07;100.00
2875;BME280;1445;52.600;13.328;2023-03-26T10:43:34;99739.81;;;7.23;100.00
2875;BME280;1445;52.600;13.328;2023-03-26T10:51:51;99718.66;;;7.65;100.00
2875;BME280;1445;52.600;13.328;2023-03-26T10:56:56;99700.16;;;8.07;100.00
2875;BME280;1445;52.600;13.328;2023-03-26T10:59:24;99692.31;;;8.36;100.00
2875;BME280;1445;52.600;13.328;2023-03-26T11:04:43;99673.53;;;8.52;100.00
2875;BME280;1445;52.600;13.328;2023-03-26T11:13:12;99657.41;;;9.39;100.00
2875;BME280;1445;52.600;13.328;2023-03-26T11:15:51;99648.16;;;9.26;100.00
2875;BME280;1445;52.600;13.328;2023-03-26T11:23:33;99623.47;;;10.04;100.00
2875;BME280;1445;52.600;13.328;2023-03-26T11:26:09;99622.75;;;10.51;100.00
2875;BME280;1445;52.600;13.328;2023-03-26T11:33:56;99616.13;;;10.35;100.00
2875;BME280;1445;52.600;13.328;2023-03-26T11:36:29;99609.19;;;10.20;100.00
2875;BME280;1445;52.600;13.328;2023-03-26T11:38:58;99604.81;;;10.83;100.00
2875;BME280;1445;52.600;13.328;2023-03-26T11:41:27;99600.47;;;10.73;100.00
2875;BME280;1445;52.600;13.328;2023-03-26T11:44:00;99600.50;;;10.65;100.00
2875;BME280;1445;52.600;13.328;2023-03-26T11:46:27;99607.19;;;10.93;100.00
2875;BME280;1445;52.600;13.328;2023-03-26T11:49:01;99606.03;;;10.94;100.00
2875;BME280;1445;52.600;13.328;2023-03-26T11:51:33;99605.13;;;10.43;100.00
2875;BME280;1445;52.600;13.328;2023-03-26T11:54:00;99593.34;;;11.32;100.00
2875;BME280;1445;52.600;13.328;2023-03-26T11:56:35;99595.06;;;11.66;100.00
2875;BME280;1445;52.600;13.328;2023-03-26T11:59:08;99591.00;;;11.42;100.00
2875;BME280;1445;52.600;13.328;2023-03-26T12:04:15;99601.81;;;11.47;100.00
2875;BME280;1445;52.600;13.328;2023-03-26T12:06:55;99581.22;;;11.24;100.00
2875;BME280;1445;52.600;13.328;2023-03-26T12:09:22;99582.66;;;11.51;100.00
2875;BME280;1445;52.600;13.328;2023-03-26T12:11:48;99578.00;;;10.92;100.00
2875;BME280;1445;52.600;13.328;2023-03-26T12:14:20;99577.75;;;10.77;100.00
2875;BME280;1445;52.600;13.328;2023-03-26T12:17:06;99574.84;;;10.73;100.00
2875;BME280;1445;52.600;13.328;2023-03-26T12:19:43;99574.28;;;11.18;100.00
2875;BME280;1445;52.600;13.328;2023-03-26T12:22:32;99572.56;;;11.05;100.00
2875;BME280;1445;52.600;13.328;2023-03-26T12:25:21;99559.50;;;10.93;100.00
2875;BME280;1445;52.600;13.328;2023-03-26T12:27:50;99558.47;;;11.06;100.00
2875;BME280;1445;52.600;13.328;2023-03-26T12:30:30;99553.19;;;10.92;100.00
2875;BME280;1445;52.600;13.328;2023-03-26T12:33:04;99555.19;;;10.83;100.00
2875;BME280;1445;52.600;13.328;2023-03-26T12:35:32;99549.84;;;11.08;100.00
2875;BME280;1445;52.600;13.328;2023-03-26T12:38:21;99549.34;;;11.35;100.00
2875;BME280;1445;52.600;13.328;2023-03-26T12:40:48;99546.72;;;11.39;100.00
2875;BME280;1445;52.600;13.328;2023-03-26T12:43:35;99541.44;;;11.67;100.00
2875;BME280;1445;52.600;13.328;2023-03-26T12:46:01;99549.47;;;11.39;100.00
2875;BME280;1445;52.600;13.328;2023-03-26T12:48:26;99554.75;;;11.23;100.00
2875;BME280;1445;52.600;13.328;2023-03-26T12:51:14;99543.97;;;11.39;100.00
2875;BME280;1445;52.600;13.328;2023-03-26T12:56:30;99543.16;;;11.59;100.00
2875;BME280;1445;52.600;13.328;2023-03-26T13:11:46;99527.41;;;12.26;100.00
2875;BME280;1445;52.600;13.328;2023-03-26T13:19:36;99524.03;;;12.21;100.00
2875;BME280;1445;52.600;13.328;2023-03-26T13:22:32;99527.84;;;12.16;100.00
2875;BME280;1445;52.600;13.328;2023-03-26T13:30:14;99537.75;;;11.63;100.00
2875;BME280;1445;52.600;13.328;2023-03-26T13:35:35;99527.31;;;11.47;100.00
2875;BME280;1445;52.600;13.328;2023-03-26T13:40:40;99528.13;;;11.69;100.00
2875;BME280;1445;52.600;13.328;2023-03-26T13:46:16;99532.84;;;11.06;100.00
2875;BME280;1445;52.600;13.328;2023-03-26T14:04:46;99524.56;;;11.06;100.00
2875;BME280;1445;52.600;13.328;2023-03-26T14:07:24;99533.72;;;11.39;100.00
2875;BME280;1445;52.600;13.328;2023-03-26T14:12:25;99530.44;;;11.25;100.00
2875;BME280;1445;52.600;13.328;2023-03-26T14:31:06;99528.34;;;11.22;100.00
2875;BME280;1445;52.600;13.328;2023-03-26T14:50:32;99522.28;;;11.08;100.00
2875;BME280;1445;52.600;13.328;2023-03-26T14:52:53;99523.53;;;10.89;100.00
2875;BME280;1445;52.600;13.328;2023-03-26T14:57:59;99522.22;;;11.37;100.00
2875;BME280;1445;52.600;13.328;2023-03-26T15:20:02;99497.75;;;16.43;100.00
2875;BME280;1445;52.600;13.328;2023-03-26T15:31:43;99498.59;;;15.43;100.00
2875;BME280;1445;52.600;13.328;2023-03-26T15:34:37;99493.34;;;14.52;100.00
2875;BME280;1445;52.600;13.328;2023-03-26T15:42:44;99504.63;;;14.94;100.00
2875;BME280;1445;52.600;13.328;2023-03-26T15:53:32;99493.91;;;15.28;100.00
2875;BME280;1445;52.600;13.328;2023-03-26T15:58:55;99496.22;;;15.26;100.00
2875;BME280;1445;52.600;13.328;2023-03-26T16:01:39;99491.63;;;15.14;100.00
2875;BME280;1445;52.600;13.328;2023-03-26T16:06:50;99493.78;;;14.54;100.00
2875;BME280;1445;52.600;13.328;2023-03-26T16:11:57;99490.38;;;13.69;100.00
2875;BME280;1445;52.600;13.328;2023-03-26T16:14:41;99493.28;;;13.60;100.00
2875;BME280;1445;52.600;13.328;2023-03-26T16:17:18;99504.34;;;13.08;100.00
2875;BME280;1445;52.600;13.328;2023-03-26T16:22:53;99512.91;;;12.29;100.00
2875;BME280;1445;52.600;13.328;2023-03-26T16:25:26;99512.50;;;11.73;100.00
2875;BME280;1445;52.600;13.328;2023-03-26T16:30:37;99510.41;;;11.70;100.00
2875;BME280;1445;52.600;13.328;2023-03-26T16:33:16;99516.06;;;11.74;100.00
2875;BME280;1445;52.600;13.328;2023-03-26T16:38:24;99514.91;;;11.75;100.00
2875;BME280;1445;52.600;13.328;2023-03-26T16:41:14;99520.69;;;11.49;100.00
2875;BME280;1445;52.600;13.328;2023-03-26T16:44:07;99518.16;;;11.77;100.00
2875;BME280;1445;52.600;13.328;2023-03-26T16:46:59;99520.53;;;11.66;100.00
2875;BME280;1445;52.600;13.328;2023-03-26T16:55:01;99524.84;;;11.13;100.00
2875;BME280;1445;52.600;13.328;2023-03-26T17:02:51;99533.06;;;10.62;100.00
2875;BME280;1445;52.600;13.328;2023-03-26T17:07:59;99524.88;;;10.45;100.00
2875;BME280;1445;52.600;13.328;2023-03-26T17:13:10;99529.47;;;10.32;100.00
2875;BME280;1445;52.600;13.328;2023-03-26T17:16:21;99529.94;;;10.34;100.00
2875;BME280;1445;52.600;13.328;2023-03-26T17:22:04;99542.97;;;10.08;100.00
2875;BME280;1445;52.600;13.328;2023-03-26T17:24:42;99540.56;;;9.97;100.00
2875;BME280;1445;52.600;13.328;2023-03-26T17:27:45;99542.19;;;9.81;100.00
2875;BME280;1445;52.600;13.328;2023-03-26T17:30:45;99546.25;;;9.75;100.00
2875;BME280;1445;52.600;13.328;2023-03-26T17:41:03;99553.41;;;9.41;100.00
2875;BME280;1445;52.600;13.328;2023-03-26T17:43:48;99556.94;;;9.33;100.00
2875;BME280;1445;52.600;13.328;2023-03-26T17:46:49;99570.97;;;9.23;100.00
2875;BME280;1445;52.600;13.328;2023-03-26T17:49:23;99566.97;;;9.20;100.00
2875;BME280;1445;52.600;13.328;2023-03-26T17:52:04;99575.34;;;9.06;100.00
2875;BME280;1445;52.600;13.328;2023-03-26T17:54:45;99570.31;;;9.08;100.00
2875;BME280;1445;52.600;13.328;2023-03-26T17:57:14;99569.97;;;9.01;100.00
2875;BME280;1445;52.600;13.328;2023-03-26T17:59:43;99572.25;;;8.99;100.00
2875;BME280;1445;52.600;13.328;2023-03-26T18:02:21;99576.63;;;9.00;100.00
2875;BME280;1445;52.600;13.328;2023-03-26T18:04:52;99574.66;;;8.92;100.00
2875;BME280;1445;52.600;13.328;2023-03-26T18:17:47;99587.59;;;8.52;100.00
2875;BME280;1445;52.600;13.328;2023-03-26T18:20:24;99588.19;;;8.40;100.00
2875;BME280;1445;52.600;13.328;2023-03-26T18:22:51;99589.31;;;8.39;100.00
2875;BME280;1445;52.600;13.328;2023-03-26T18:27:47;99600.19;;;8.22;100.00
2875;BME280;1445;52.600;13.328;2023-03-26T18:30:17;99595.56;;;8.08;100.00
2875;BME280;1445;52.600;13.328;2023-03-26T18:32:51;99604.84;;;7.99;100.00
2875;BME280;1445;52.600;13.328;2023-03-26T18:35:23;99612.91;;;7.95;100.00
2875;BME280;1445;52.600;13.328;2023-03-26T18:37:50;99616.59;;;7.91;100.00
2875;BME280;1445;52.600;13.328;2023-03-26T18:40:22;99614.72;;;7.77;100.00
2875;BME280;1445;52.600;13.328;2023-03-26T18:42:55;99612.59;;;7.74;100.00
2875;BME280;1445;52.600;13.328;2023-03-26T18:45:30;99617.88;;;7.71;100.00
2875;BME280;1445;52.600;13.328;2023-03-26T18:48:02;99613.13;;;7.62;100.00
2875;BME280;1445;52.600;13.328;2023-03-26T18:50:34;99614.03;;;7.58;100.00
2875;BME280;1445;52.600;13.328;2023-03-26T18:53:02;99618.09;;;7.60;100.00
2875;BME280;1445;52.600;13.328;2023-03-26T18:55:29;99623.22;;;7.53;100.00
2875;BME280;1445;52.600;13.328;2023-03-26T18:57:57;99620.09;;;7.46;100.00
2875;BME280;1445;52.600;13.328;2023-03-26T19:00:24;99622.00;;;7.46;100.00
2875;BME280;1445;52.600;13.328;2023-03-26T19:03:12;99620.81;;;7.38;100.00
2875;BME280;1445;52.600;13.328;2023-03-26T19:05:41;99619.81;;;7.34;100.00
2875;BME280;1445;52.600;13.328;2023-03-26T19:08:08;99622.56;;;7.34;100.00
2875;BME280;1445;52.600;13.328;2023-03-26T19:10:35;99615.00;;;7.39;100.00
2875;BME280;1445;52.600;13.328;2023-03-26T19:13:01;99617.50;;;7.27;100.00
2875;BME280;1445;52.600;13.328;2023-03-26T19:15:31;99620.91;;;7.33;100.00
2875;BME280;1445;52.600;13.328;2023-03-26T19:18:00;99616.38;;;7.28;100.00